Peaksville, Missouri
Current Conditions -  °F | °C
As of 1:15 PM on Friday 28 Nov 2014 (Local Time) from KEOK Reporting Station
Clear Clear  
Wind Chill: 36°   Ceiling: Unl
Heat Index: 43°   Visibility: 10mi
Dew Point: 30°   Wind: 14mph
Humidity: 61%   Direction: 180°S
Pressure: 29.91"   Gusts: 21mph
Location:  40.4976°N, 91.6726°W
Report Text: KEOK 281915Z AUTO 18012G18KT 10SM CLR 06/M01 A2991 RMK AO2
Loading
Personal Weather Stations






























Interactive Weather Map New forecast layout! Learn more

10-Day Weather Forecast

Advertisements
Track Severe Weather on mobile